sensor_id;sensor_type;location;lat;lon;timestamp;P1;durP1;ratioP1;P2;durP2;ratioP2
13085;SDS011;6609;49.882;8.664;2023-05-20T00:01:51;5.00;;;2.60;;
13085;SDS011;6609;49.882;8.664;2023-05-20T00:04:18;5.03;;;2.30;;
13085;SDS011;6609;49.882;8.664;2023-05-20T00:06:45;8.03;;;2.93;;
13085;SDS011;6609;49.882;8.664;2023-05-20T00:09:12;5.67;;;2.80;;
13085;SDS011;6609;49.882;8.664;2023-05-20T00:11:39;6.80;;;2.60;;
13085;SDS011;6609;49.882;8.664;2023-05-20T00:14:06;5.13;;;2.83;;
13085;SDS011;6609;49.882;8.664;2023-05-20T00:16:34;5.10;;;2.57;;
13085;SDS011;6609;49.882;8.664;2023-05-20T00:19:01;7.00;;;2.90;;
13085;SDS011;6609;49.882;8.664;2023-05-20T00:21:28;6.07;;;2.83;;
13085;SDS011;6609;49.882;8.664;2023-05-20T00:23:55;4.13;;;2.40;;
13085;SDS011;6609;49.882;8.664;2023-05-20T00:26:22;6.40;;;3.10;;
13085;SDS011;6609;49.882;8.664;2023-05-20T00:28:49;4.63;;;2.93;;
13085;SDS011;6609;49.882;8.664;2023-05-20T00:31:16;4.67;;;2.70;;
13085;SDS011;6609;49.882;8.664;2023-05-20T00:33:44;5.13;;;2.63;;
13085;SDS011;6609;49.882;8.664;2023-05-20T00:36:11;5.13;;;2.90;;
13085;SDS011;6609;49.882;8.664;2023-05-20T00:38:38;5.97;;;2.53;;
13085;SDS011;6609;49.882;8.664;2023-05-20T00:41:05;4.60;;;2.30;;
13085;SDS011;6609;49.882;8.664;2023-05-20T00:43:32;9.10;;;3.13;;
13085;SDS011;6609;49.882;8.664;2023-05-20T00:45:59;13.67;;;3.60;;
13085;SDS011;6609;49.882;8.664;2023-05-20T00:48:27;6.93;;;2.80;;
13085;SDS011;6609;49.882;8.664;2023-05-20T00:50:58;6.23;;;2.83;;
13085;SDS011;6609;49.882;8.664;2023-05-20T00:53:26;6.93;;;2.90;;
13085;SDS011;6609;49.882;8.664;2023-05-20T00:55:53;5.87;;;2.50;;
13085;SDS011;6609;49.882;8.664;2023-05-20T00:58:20;5.73;;;3.00;;
13085;SDS011;6609;49.882;8.664;2023-05-20T01:00:47;5.97;;;2.60;;
13085;SDS011;6609;49.882;8.664;2023-05-20T01:03:15;5.73;;;3.13;;
13085;SDS011;6609;49.882;8.664;2023-05-20T01:05:42;5.73;;;2.93;;
13085;SDS011;6609;49.882;8.664;2023-05-20T01:08:11;5.20;;;2.80;;
13085;SDS011;6609;49.882;8.664;2023-05-20T01:10:38;6.10;;;3.30;;
13085;SDS011;6609;49.882;8.664;2023-05-20T01:13:07;4.00;;;2.30;;
13085;SDS011;6609;49.882;8.664;2023-05-20T01:15:40;5.07;;;2.50;;
13085;SDS011;6609;49.882;8.664;2023-05-20T01:18:09;7.77;;;3.20;;
13085;SDS011;6609;49.882;8.664;2023-05-20T01:20:36;6.67;;;2.70;;
13085;SDS011;6609;49.882;8.664;2023-05-20T01:23:05;3.53;;;2.40;;
13085;SDS011;6609;49.882;8.664;2023-05-20T01:25:32;5.73;;;2.87;;
13085;SDS011;6609;49.882;8.664;2023-05-20T01:27:59;5.87;;;3.00;;
13085;SDS011;6609;49.882;8.664;2023-05-20T01:30:29;4.83;;;2.57;;
13085;SDS011;6609;49.882;8.664;2023-05-20T01:33:00;6.93;;;3.13;;
13085;SDS011;6609;49.882;8.664;2023-05-20T01:35:32;5.90;;;2.97;;
13085;SDS011;6609;49.882;8.664;2023-05-20T01:38:00;4.97;;;2.67;;
13085;SDS011;6609;49.882;8.664;2023-05-20T01:40:31;3.97;;;2.80;;
13085;SDS011;6609;49.882;8.664;2023-05-20T01:42:58;5.17;;;2.83;;
13085;SDS011;6609;49.882;8.664;2023-05-20T01:45:26;7.17;;;3.40;;
13085;SDS011;6609;49.882;8.664;2023-05-20T01:47:53;6.27;;;3.00;;
13085;SDS011;6609;49.882;8.664;2023-05-20T01:50:20;4.10;;;2.60;;
13085;SDS011;6609;49.882;8.664;2023-05-20T01:52:47;4.67;;;3.03;;
13085;SDS011;6609;49.882;8.664;2023-05-20T01:55:14;5.80;;;3.13;;
13085;SDS011;6609;49.882;8.664;2023-05-20T01:57:42;3.53;;;2.23;;
13085;SDS011;6609;49.882;8.664;2023-05-20T02:00:09;5.27;;;2.97;;
13085;SDS011;6609;49.882;8.664;2023-05-20T02:02:36;4.77;;;3.10;;
13085;SDS011;6609;49.882;8.664;2023-05-20T02:05:04;4.23;;;3.30;;
13085;SDS011;6609;49.882;8.664;2023-05-20T02:07:31;5.17;;;3.10;;
13085;SDS011;6609;49.882;8.664;2023-05-20T02:09:58;6.37;;;3.20;;
13085;SDS011;6609;49.882;8.664;2023-05-20T02:12:25;4.13;;;2.87;;
13085;SDS011;6609;49.882;8.664;2023-05-20T02:14:53;9.07;;;3.17;;
13085;SDS011;6609;49.882;8.664;2023-05-20T02:17:20;5.23;;;2.57;;
13085;SDS011;6609;49.882;8.664;2023-05-20T02:19:47;4.93;;;2.77;;
13085;SDS011;6609;49.882;8.664;2023-05-20T02:22:14;5.67;;;3.20;;
13085;SDS011;6609;49.882;8.664;2023-05-20T02:24:41;7.30;;;3.23;;
13085;SDS011;6609;49.882;8.664;2023-05-20T02:27:08;7.17;;;3.20;;
13085;SDS011;6609;49.882;8.664;2023-05-20T02:29:35;6.47;;;3.20;;
13085;SDS011;6609;49.882;8.664;2023-05-20T02:32:03;9.77;;;3.50;;
13085;SDS011;6609;49.882;8.664;2023-05-20T02:34:30;4.80;;;3.07;;
13085;SDS011;6609;49.882;8.664;2023-05-20T02:36:57;6.47;;;3.33;;
13085;SDS011;6609;49.882;8.664;2023-05-20T02:39:25;5.93;;;3.17;;
13085;SDS011;6609;49.882;8.664;2023-05-20T02:41:53;3.43;;;2.40;;
13085;SDS011;6609;49.882;8.664;2023-05-20T02:44:20;8.20;;;3.53;;
13085;SDS011;6609;49.882;8.664;2023-05-20T02:46:47;6.33;;;2.87;;
13085;SDS011;6609;49.882;8.664;2023-05-20T02:49:15;6.27;;;3.67;;
13085;SDS011;6609;49.882;8.664;2023-05-20T02:51:42;7.23;;;3.67;;
13085;SDS011;6609;49.882;8.664;2023-05-20T02:54:08;6.63;;;3.00;;
13085;SDS011;6609;49.882;8.664;2023-05-20T02:56:36;7.47;;;3.90;;
13085;SDS011;6609;49.882;8.664;2023-05-20T02:59:02;6.67;;;3.63;;
13085;SDS011;6609;49.882;8.664;2023-05-20T03:01:31;6.63;;;3.50;;
13085;SDS011;6609;49.882;8.664;2023-05-20T03:03:59;5.47;;;3.20;;
13085;SDS011;6609;49.882;8.664;2023-05-20T03:06:27;8.17;;;3.27;;
13085;SDS011;6609;49.882;8.664;2023-05-20T03:08:55;5.57;;;3.30;;
13085;SDS011;6609;49.882;8.664;2023-05-20T03:11:23;7.57;;;4.47;;
13085;SDS011;6609;49.882;8.664;2023-05-20T03:13:50;5.67;;;3.33;;
13085;SDS011;6609;49.882;8.664;2023-05-20T03:16:17;6.57;;;3.20;;
13085;SDS011;6609;49.882;8.664;2023-05-20T03:18:43;7.37;;;3.60;;
13085;SDS011;6609;49.882;8.664;2023-05-20T03:21:11;8.07;;;3.87;;
13085;SDS011;6609;49.882;8.664;2023-05-20T03:23:39;9.83;;;3.53;;
13085;SDS011;6609;49.882;8.664;2023-05-20T03:26:06;5.43;;;3.23;;
13085;SDS011;6609;49.882;8.664;2023-05-20T03:28:34;9.73;;;3.77;;
13085;SDS011;6609;49.882;8.664;2023-05-20T03:31:01;4.63;;;3.07;;
13085;SDS011;6609;49.882;8.664;2023-05-20T03:33:28;7.00;;;3.47;;
13085;SDS011;6609;49.882;8.664;2023-05-20T03:35:57;4.63;;;3.27;;
13085;SDS011;6609;49.882;8.664;2023-05-20T03:38:24;5.13;;;3.40;;
13085;SDS011;6609;49.882;8.664;2023-05-20T03:40:53;5.90;;;3.40;;
13085;SDS011;6609;49.882;8.664;2023-05-20T03:43:19;10.20;;;4.40;;
13085;SDS011;6609;49.882;8.664;2023-05-20T03:45:46;8.77;;;4.97;;
13085;SDS011;6609;49.882;8.664;2023-05-20T03:48:13;6.17;;;3.47;;
13085;SDS011;6609;49.882;8.664;2023-05-20T03:50:40;4.90;;;3.27;;
13085;SDS011;6609;49.882;8.664;2023-05-20T03:53:07;4.20;;;3.03;;
13085;SDS011;6609;49.882;8.664;2023-05-20T03:55:34;4.37;;;2.73;;
13085;SDS011;6609;49.882;8.664;2023-05-20T03:58:03;6.33;;;3.23;;
13085;SDS011;6609;49.882;8.664;2023-05-20T04:00:32;5.80;;;3.07;;
13085;SDS011;6609;49.882;8.664;2023-05-20T04:02:58;9.27;;;4.60;;
13085;SDS011;6609;49.882;8.664;2023-05-20T04:05:26;5.13;;;3.50;;
13085;SDS011;6609;49.882;8.664;2023-05-20T04:07:52;5.97;;;3.17;;
13085;SDS011;6609;49.882;8.664;2023-05-20T04:10:21;5.87;;;3.37;;
13085;SDS011;6609;49.882;8.664;2023-05-20T04:12:48;8.73;;;3.83;;
13085;SDS011;6609;49.882;8.664;2023-05-20T04:15:16;5.23;;;3.50;;
13085;SDS011;6609;49.882;8.664;2023-05-20T04:17:43;4.63;;;3.47;;
13085;SDS011;6609;49.882;8.664;2023-05-20T04:20:12;5.70;;;3.63;;
13085;SDS011;6609;49.882;8.664;2023-05-20T04:22:39;5.77;;;3.40;;
13085;SDS011;6609;49.882;8.664;2023-05-20T04:25:06;6.57;;;3.90;;
13085;SDS011;6609;49.882;8.664;2023-05-20T04:27:33;5.30;;;3.23;;
13085;SDS011;6609;49.882;8.664;2023-05-20T04:30:01;5.90;;;3.60;;
13085;SDS011;6609;49.882;8.664;2023-05-20T04:32:30;6.73;;;3.33;;
13085;SDS011;6609;49.882;8.664;2023-05-20T04:34:58;5.30;;;3.57;;
13085;SDS011;6609;49.882;8.664;2023-05-20T04:37:26;4.40;;;3.07;;
13085;SDS011;6609;49.882;8.664;2023-05-20T04:39:53;7.23;;;3.50;;
13085;SDS011;6609;49.882;8.664;2023-05-20T04:42:20;3.97;;;3.00;;
13085;SDS011;6609;49.882;8.664;2023-05-20T04:44:47;4.27;;;3.00;;
13085;SDS011;6609;49.882;8.664;2023-05-20T04:47:14;7.90;;;3.73;;
13085;SDS011;6609;49.882;8.664;2023-05-20T04:49:42;8.47;;;4.07;;
13085;SDS011;6609;49.882;8.664;2023-05-20T04:52:09;6.90;;;3.77;;
13085;SDS011;6609;49.882;8.664;2023-05-20T04:54:36;8.27;;;4.00;;
13085;SDS011;6609;49.882;8.664;2023-05-20T04:57:04;6.93;;;4.20;;
13085;SDS011;6609;49.882;8.664;2023-05-20T04:59:31;7.63;;;4.33;;
13085;SDS011;6609;49.882;8.664;2023-05-20T05:01:58;5.93;;;3.50;;
13085;SDS011;6609;49.882;8.664;2023-05-20T05:04:25;7.70;;;4.10;;
13085;SDS011;6609;49.882;8.664;2023-05-20T05:06:53;6.83;;;4.10;;
13085;SDS011;6609;49.882;8.664;2023-05-20T05:09:20;7.77;;;4.27;;
13085;SDS011;6609;49.882;8.664;2023-05-20T05:11:47;5.23;;;3.67;;
13085;SDS011;6609;49.882;8.664;2023-05-20T05:14:14;7.57;;;4.53;;
13085;SDS011;6609;49.882;8.664;2023-05-20T05:16:41;7.43;;;4.60;;
13085;SDS011;6609;49.882;8.664;2023-05-20T05:19:08;7.33;;;3.80;;
13085;SDS011;6609;49.882;8.664;2023-05-20T05:21:35;9.27;;;4.40;;
13085;SDS011;6609;49.882;8.664;2023-05-20T05:24:04;10.70;;;4.53;;
13085;SDS011;6609;49.882;8.664;2023-05-20T05:26:31;6.77;;;4.53;;
13085;SDS011;6609;49.882;8.664;2023-05-20T05:28:58;6.67;;;4.47;;
13085;SDS011;6609;49.882;8.664;2023-05-20T05:31:25;8.03;;;4.17;;
13085;SDS011;6609;49.882;8.664;2023-05-20T05:33:52;6.77;;;3.50;;
13085;SDS011;6609;49.882;8.664;2023-05-20T05:36:19;6.67;;;3.73;;
13085;SDS011;6609;49.882;8.664;2023-05-20T05:38:46;6.23;;;4.37;;
13085;SDS011;6609;49.882;8.664;2023-05-20T05:41:14;10.17;;;4.37;;
13085;SDS011;6609;49.882;8.664;2023-05-20T05:43:41;7.83;;;5.23;;
13085;SDS011;6609;49.882;8.664;2023-05-20T05:46:08;6.47;;;3.87;;
13085;SDS011;6609;49.882;8.664;2023-05-20T05:48:35;4.97;;;3.50;;
13085;SDS011;6609;49.882;8.664;2023-05-20T05:51:03;6.47;;;3.87;;
13085;SDS011;6609;49.882;8.664;2023-05-20T05:53:30;10.43;;;4.43;;
13085;SDS011;6609;49.882;8.664;2023-05-20T05:55:57;8.63;;;4.73;;
13085;SDS011;6609;49.882;8.664;2023-05-20T05:58:25;7.73;;;4.13;;
13085;SDS011;6609;49.882;8.664;2023-05-20T06:00:52;7.60;;;4.53;;
13085;SDS011;6609;49.882;8.664;2023-05-20T06:03:19;7.90;;;4.97;;
13085;SDS011;6609;49.882;8.664;2023-05-20T06:05:46;7.20;;;4.13;;
13085;SDS011;6609;49.882;8.664;2023-05-20T06:08:13;7.60;;;5.17;;
13085;SDS011;6609;49.882;8.664;2023-05-20T06:10:41;8.33;;;4.73;;
13085;SDS011;6609;49.882;8.664;2023-05-20T06:13:08;7.07;;;4.47;;
13085;SDS011;6609;49.882;8.664;2023-05-20T06:15:36;6.97;;;4.47;;
13085;SDS011;6609;49.882;8.664;2023-05-20T06:18:04;9.37;;;4.70;;
13085;SDS011;6609;49.882;8.664;2023-05-20T06:20:31;8.57;;;4.50;;
13085;SDS011;6609;49.882;8.664;2023-05-20T06:22:59;4.87;;;3.97;;
13085;SDS011;6609;49.882;8.664;2023-05-20T06:25:26;6.70;;;4.57;;
13085;SDS011;6609;49.882;8.664;2023-05-20T06:27:53;9.77;;;4.57;;
13085;SDS011;6609;49.882;8.664;2023-05-20T06:30:20;9.73;;;4.67;;
13085;SDS011;6609;49.882;8.664;2023-05-20T06:32:48;6.00;;;4.10;;
13085;SDS011;6609;49.882;8.664;2023-05-20T06:35:15;5.90;;;4.33;;
13085;SDS011;6609;49.882;8.664;2023-05-20T06:37:42;6.60;;;4.47;;
13085;SDS011;6609;49.882;8.664;2023-05-20T06:40:09;6.87;;;4.43;;
13085;SDS011;6609;49.882;8.664;2023-05-20T06:42:37;8.70;;;4.77;;
13085;SDS011;6609;49.882;8.664;2023-05-20T06:45:04;7.77;;;4.57;;
13085;SDS011;6609;49.882;8.664;2023-05-20T06:47:31;11.00;;;4.63;;
13085;SDS011;6609;49.882;8.664;2023-05-20T06:49:59;9.20;;;5.13;;
13085;SDS011;6609;49.882;8.664;2023-05-20T06:52:26;7.17;;;4.63;;
13085;SDS011;6609;49.882;8.664;2023-05-20T06:54:53;8.40;;;4.43;;
13085;SDS011;6609;49.882;8.664;2023-05-20T06:57:20;8.17;;;4.47;;
13085;SDS011;6609;49.882;8.664;2023-05-20T06:59:47;8.37;;;5.03;;
13085;SDS011;6609;49.882;8.664;2023-05-20T07:02:14;9.20;;;4.73;;
13085;SDS011;6609;49.882;8.664;2023-05-20T07:04:42;9.40;;;5.27;;
13085;SDS011;6609;49.882;8.664;2023-05-20T07:07:11;7.80;;;5.30;;
13085;SDS011;6609;49.882;8.664;2023-05-20T07:09:37;10.60;;;5.17;;
13085;SDS011;6609;49.882;8.664;2023-05-20T07:12:05;7.97;;;4.93;;
13085;SDS011;6609;49.882;8.664;2023-05-20T07:14:32;8.90;;;4.93;;
13085;SDS011;6609;49.882;8.664;2023-05-20T07:16:59;6.03;;;4.80;;
13085;SDS011;6609;49.882;8.664;2023-05-20T07:19:26;6.53;;;4.07;;
13085;SDS011;6609;49.882;8.664;2023-05-20T07:21:53;10.63;;;4.53;;
13085;SDS011;6609;49.882;8.664;2023-05-20T07:24:21;10.73;;;5.27;;
13085;SDS011;6609;49.882;8.664;2023-05-20T07:26:48;7.27;;;5.07;;
13085;SDS011;6609;49.882;8.664;2023-05-20T07:29:15;7.50;;;5.57;;
13085;SDS011;6609;49.882;8.664;2023-05-20T07:31:42;6.83;;;4.93;;
13085;SDS011;6609;49.882;8.664;2023-05-20T07:34:09;7.57;;;4.97;;
13085;SDS011;6609;49.882;8.664;2023-05-20T07:36:36;6.00;;;4.30;;
13085;SDS011;6609;49.882;8.664;2023-05-20T07:39:03;9.60;;;4.13;;
13085;SDS011;6609;49.882;8.664;2023-05-20T07:41:31;6.00;;;4.50;;
13085;SDS011;6609;49.882;8.664;2023-05-20T07:43:58;8.30;;;4.80;;
13085;SDS011;6609;49.882;8.664;2023-05-20T07:46:25;6.57;;;4.77;;
13085;SDS011;6609;49.882;8.664;2023-05-20T07:48:51;7.63;;;5.43;;
13085;SDS011;6609;49.882;8.664;2023-05-20T07:51:18;8.47;;;5.10;;
13085;SDS011;6609;49.882;8.664;2023-05-20T07:53:45;10.77;;;5.63;;
13085;SDS011;6609;49.882;8.664;2023-05-20T07:56:12;9.40;;;4.60;;
13085;SDS011;6609;49.882;8.664;2023-05-20T07:58:41;8.00;;;5.40;;
13085;SDS011;6609;49.882;8.664;2023-05-20T08:01:08;6.47;;;5.37;;
13085;SDS011;6609;49.882;8.664;2023-05-20T08:03:35;10.57;;;5.30;;
13085;SDS011;6609;49.882;8.664;2023-05-20T08:06:02;11.87;;;5.13;;
13085;SDS011;6609;49.882;8.664;2023-05-20T08:08:29;10.93;;;5.73;;
13085;SDS011;6609;49.882;8.664;2023-05-20T08:10:57;8.93;;;4.90;;
13085;SDS011;6609;49.882;8.664;2023-05-20T08:13:25;6.93;;;4.90;;
13085;SDS011;6609;49.882;8.664;2023-05-20T08:15:54;8.47;;;5.87;;
13085;SDS011;6609;49.882;8.664;2023-05-20T08:18:21;8.93;;;5.07;;
13085;SDS011;6609;49.882;8.664;2023-05-20T08:20:48;8.17;;;4.83;;
13085;SDS011;6609;49.882;8.664;2023-05-20T08:23:15;6.33;;;4.60;;
13085;SDS011;6609;49.882;8.664;2023-05-20T08:25:42;9.83;;;5.60;;
13085;SDS011;6609;49.882;8.664;2023-05-20T08:28:10;6.93;;;4.77;;
13085;SDS011;6609;49.882;8.664;2023-05-20T08:30:38;6.33;;;4.77;;
13085;SDS011;6609;49.882;8.664;2023-05-20T08:33:06;7.23;;;4.77;;
13085;SDS011;6609;49.882;8.664;2023-05-20T08:35:34;9.90;;;5.03;;
13085;SDS011;6609;49.882;8.664;2023-05-20T08:38:03;9.17;;;5.90;;
13085;SDS011;6609;49.882;8.664;2023-05-20T08:40:30;9.57;;;5.13;;
13085;SDS011;6609;49.882;8.664;2023-05-20T08:43:00;7.77;;;4.53;;
13085;SDS011;6609;49.882;8.664;2023-05-20T08:45:28;12.83;;;5.20;;
13085;SDS011;6609;49.882;8.664;2023-05-20T08:47:57;8.90;;;5.50;;
13085;SDS011;6609;49.882;8.664;2023-05-20T08:50:26;7.60;;;5.37;;
13085;SDS011;6609;49.882;8.664;2023-05-20T08:52:53;9.03;;;5.27;;
13085;SDS011;6609;49.882;8.664;2023-05-20T08:55:23;9.17;;;5.57;;
13085;SDS011;6609;49.882;8.664;2023-05-20T08:57:51;8.23;;;4.83;;
13085;SDS011;6609;49.882;8.664;2023-05-20T09:00:19;9.57;;;5.27;;
13085;SDS011;6609;49.882;8.664;2023-05-20T09:02:51;7.13;;;5.33;;
13085;SDS011;6609;49.882;8.664;2023-05-20T09:05:18;6.87;;;5.43;;
13085;SDS011;6609;49.882;8.664;2023-05-20T09:07:47;9.97;;;5.67;;
13085;SDS011;6609;49.882;8.664;2023-05-20T09:10:15;9.50;;;5.17;;
13085;SDS011;6609;49.882;8.664;2023-05-20T09:12:42;8.37;;;4.83;;
13085;SDS011;6609;49.882;8.664;2023-05-20T09:15:09;11.13;;;5.93;;
13085;SDS011;6609;49.882;8.664;2023-05-20T09:17:36;10.43;;;5.47;;
13085;SDS011;6609;49.882;8.664;2023-05-20T09:20:05;10.17;;;6.27;;
13085;SDS011;6609;49.882;8.664;2023-05-20T09:22:33;8.43;;;5.67;;
13085;SDS011;6609;49.882;8.664;2023-05-20T09:25:02;7.00;;;5.53;;
13085;SDS011;6609;49.882;8.664;2023-05-20T09:27:29;6.43;;;4.87;;
13085;SDS011;6609;49.882;8.664;2023-05-20T09:29:56;6.03;;;4.50;;
13085;SDS011;6609;49.882;8.664;2023-05-20T09:32:23;6.50;;;4.40;;
13085;SDS011;6609;49.882;8.664;2023-05-20T09:34:52;7.10;;;4.47;;
13085;SDS011;6609;49.882;8.664;2023-05-20T09:37:20;4.90;;;4.40;;
13085;SDS011;6609;49.882;8.664;2023-05-20T09:39:49;8.67;;;5.70;;
13085;SDS011;6609;49.882;8.664;2023-05-20T09:42:24;6.27;;;4.90;;
13085;SDS011;6609;49.882;8.664;2023-05-20T09:44:53;10.60;;;5.77;;
13085;SDS011;6609;49.882;8.664;2023-05-20T09:47:22;6.70;;;5.50;;
13085;SDS011;6609;49.882;8.664;2023-05-20T09:49:50;5.93;;;5.00;;
13085;SDS011;6609;49.882;8.664;2023-05-20T09:52:17;8.80;;;5.17;;
13085;SDS011;6609;49.882;8.664;2023-05-20T09:54:45;5.80;;;5.17;;
13085;SDS011;6609;49.882;8.664;2023-05-20T09:57:12;9.73;;;5.33;;
13085;SDS011;6609;49.882;8.664;2023-05-20T09:59:41;5.40;;;4.20;;
13085;SDS011;6609;49.882;8.664;2023-05-20T10:02:08;7.70;;;5.67;;
13085;SDS011;6609;49.882;8.664;2023-05-20T10:04:36;6.23;;;4.90;;
13085;SDS011;6609;49.882;8.664;2023-05-20T10:07:11;6.87;;;5.10;;
13085;SDS011;6609;49.882;8.664;2023-05-20T10:09:46;6.73;;;5.33;;
13085;SDS011;6609;49.882;8.664;2023-05-20T10:12:18;6.43;;;4.63;;
13085;SDS011;6609;49.882;8.664;2023-05-20T10:14:55;4.73;;;4.33;;
13085;SDS011;6609;49.882;8.664;2023-05-20T10:17:30;5.23;;;4.73;;
13085;SDS011;6609;49.882;8.664;2023-05-20T10:20:05;6.33;;;4.40;;
13085;SDS011;6609;49.882;8.664;2023-05-20T10:22:35;5.17;;;4.70;;
13085;SDS011;6609;49.882;8.664;2023-05-20T10:25:04;6.83;;;5.27;;
13085;SDS011;6609;49.882;8.664;2023-05-20T10:27:40;6.50;;;5.10;;
13085;SDS011;6609;49.882;8.664;2023-05-20T10:30:15;8.00;;;4.93;;
13085;SDS011;6609;49.882;8.664;2023-05-20T10:32:47;6.77;;;5.23;;
13085;SDS011;6609;49.882;8.664;2023-05-20T10:35:19;6.27;;;4.80;;
13085;SDS011;6609;49.882;8.664;2023-05-20T10:37:47;5.50;;;4.80;;
13085;SDS011;6609;49.882;8.664;2023-05-20T10:40:15;6.27;;;4.77;;
13085;SDS011;6609;49.882;8.664;2023-05-20T10:42:44;5.80;;;5.07;;
13085;SDS011;6609;49.882;8.664;2023-05-20T10:45:23;7.57;;;5.63;;
13085;SDS011;6609;49.882;8.664;2023-05-20T10:47:55;6.23;;;4.83;;
13085;SDS011;6609;49.882;8.664;2023-05-20T10:50:25;6.60;;;5.57;;
13085;SDS011;6609;49.882;8.664;2023-05-20T10:52:53;7.07;;;5.20;;
13085;SDS011;6609;49.882;8.664;2023-05-20T10:55:21;8.43;;;5.23;;
13085;SDS011;6609;49.882;8.664;2023-05-20T10:57:48;9.63;;;5.90;;
13085;SDS011;6609;49.882;8.664;2023-05-20T11:00:15;7.13;;;6.10;;
13085;SDS011;6609;49.882;8.664;2023-05-20T11:02:44;5.43;;;4.73;;
13085;SDS011;6609;49.882;8.664;2023-05-20T11:05:11;6.23;;;5.63;;
13085;SDS011;6609;49.882;8.664;2023-05-20T11:07:39;7.63;;;5.60;;
13085;SDS011;6609;49.882;8.664;2023-05-20T11:10:07;6.83;;;5.17;;
13085;SDS011;6609;49.882;8.664;2023-05-20T11:12:34;8.67;;;5.23;;
13085;SDS011;6609;49.882;8.664;2023-05-20T11:15:01;6.60;;;5.13;;
13085;SDS011;6609;49.882;8.664;2023-05-20T11:17:29;7.90;;;4.83;;
13085;SDS011;6609;49.882;8.664;2023-05-20T11:19:57;5.90;;;5.30;;
13085;SDS011;6609;49.882;8.664;2023-05-20T11:22:24;6.77;;;5.47;;
13085;SDS011;6609;49.882;8.664;2023-05-20T11:24:51;8.27;;;5.57;;
13085;SDS011;6609;49.882;8.664;2023-05-20T11:27:18;6.10;;;5.50;;
13085;SDS011;6609;49.882;8.664;2023-05-20T11:29:45;10.30;;;5.50;;
13085;SDS011;6609;49.882;8.664;2023-05-20T11:32:15;5.90;;;5.30;;
13085;SDS011;6609;49.882;8.664;2023-05-20T11:34:45;5.90;;;5.30;;
13085;SDS011;6609;49.882;8.664;2023-05-20T11:37:18;7.73;;;5.30;;
13085;SDS011;6609;49.882;8.664;2023-05-20T11:39:45;6.70;;;5.63;;
13085;SDS011;6609;49.882;8.664;2023-05-20T11:42:13;6.73;;;5.33;;
13085;SDS011;6609;49.882;8.664;2023-05-20T11:44:41;6.80;;;5.17;;
13085;SDS011;6609;49.882;8.664;2023-05-20T11:47:09;5.90;;;5.13;;
13085;SDS011;6609;49.882;8.664;2023-05-20T11:49:40;7.73;;;6.67;;
13085;SDS011;6609;49.882;8.664;2023-05-20T11:52:07;8.17;;;5.43;;
13085;SDS011;6609;49.882;8.664;2023-05-20T11:54:36;6.23;;;5.60;;
13085;SDS011;6609;49.882;8.664;2023-05-20T11:57:03;5.77;;;5.17;;
13085;SDS011;6609;49.882;8.664;2023-05-20T11:59:29;7.30;;;5.73;;
13085;SDS011;6609;49.882;8.664;2023-05-20T12:01:56;7.67;;;5.50;;
13085;SDS011;6609;49.882;8.664;2023-05-20T12:04:23;7.00;;;5.83;;
13085;SDS011;6609;49.882;8.664;2023-05-20T12:06:50;9.73;;;6.37;;
13085;SDS011;6609;49.882;8.664;2023-05-20T12:09:17;7.83;;;6.50;;
13085;SDS011;6609;49.882;8.664;2023-05-20T12:11:45;8.97;;;6.10;;
13085;SDS011;6609;49.882;8.664;2023-05-20T12:14:12;7.23;;;5.83;;
13085;SDS011;6609;49.882;8.664;2023-05-20T12:16:38;6.53;;;5.50;;
13085;SDS011;6609;49.882;8.664;2023-05-20T12:19:05;7.17;;;5.47;;
13085;SDS011;6609;49.882;8.664;2023-05-20T12:21:33;7.80;;;6.07;;
13085;SDS011;6609;49.882;8.664;2023-05-20T12:24:00;8.53;;;5.47;;
13085;SDS011;6609;49.882;8.664;2023-05-20T12:26:29;9.07;;;5.77;;
13085;SDS011;6609;49.882;8.664;2023-05-20T12:28:58;9.47;;;6.00;;
13085;SDS011;6609;49.882;8.664;2023-05-20T12:31:25;6.93;;;6.07;;
13085;SDS011;6609;49.882;8.664;2023-05-20T12:33:51;6.47;;;5.57;;
13085;SDS011;6609;49.882;8.664;2023-05-20T12:36:18;7.87;;;7.07;;
13085;SDS011;6609;49.882;8.664;2023-05-20T12:38:45;7.10;;;5.80;;
13085;SDS011;6609;49.882;8.664;2023-05-20T12:41:13;7.43;;;6.10;;
13085;SDS011;6609;49.882;8.664;2023-05-20T12:43:40;8.60;;;6.33;;
13085;SDS011;6609;49.882;8.664;2023-05-20T12:46:08;6.77;;;5.80;;
13085;SDS011;6609;49.882;8.664;2023-05-20T12:48:35;6.53;;;5.87;;
13085;SDS011;6609;49.882;8.664;2023-05-20T12:51:02;7.57;;;6.10;;
13085;SDS011;6609;49.882;8.664;2023-05-20T12:53:29;7.47;;;6.00;;
13085;SDS011;6609;49.882;8.664;2023-05-20T12:55:55;8.73;;;6.53;;
13085;SDS011;6609;49.882;8.664;2023-05-20T12:58:22;9.07;;;6.30;;
13085;SDS011;6609;49.882;8.664;2023-05-20T13:00:49;8.20;;;6.73;;
13085;SDS011;6609;49.882;8.664;2023-05-20T13:03:18;8.87;;;6.37;;
13085;SDS011;6609;49.882;8.664;2023-05-20T13:05:45;8.23;;;6.20;;
13085;SDS011;6609;49.882;8.664;2023-05-20T13:08:12;9.37;;;6.20;;
13085;SDS011;6609;49.882;8.664;2023-05-20T13:10:39;8.27;;;6.63;;
13085;SDS011;6609;49.882;8.664;2023-05-20T13:13:06;8.17;;;6.07;;
13085;SDS011;6609;49.882;8.664;2023-05-20T13:15:33;11.40;;;6.23;;
13085;SDS011;6609;49.882;8.664;2023-05-20T13:18:00;9.67;;;6.33;;
13085;SDS011;6609;49.882;8.664;2023-05-20T13:20:31;8.13;;;6.70;;
13085;SDS011;6609;49.882;8.664;2023-05-20T13:22:57;8.90;;;6.50;;
13085;SDS011;6609;49.882;8.664;2023-05-20T13:25:24;8.63;;;7.07;;
13085;SDS011;6609;49.882;8.664;2023-05-20T13:27:51;9.20;;;6.70;;
13085;SDS011;6609;49.882;8.664;2023-05-20T13:30:18;8.00;;;6.60;;
13085;SDS011;6609;49.882;8.664;2023-05-20T13:32:45;10.33;;;7.17;;
13085;SDS011;6609;49.882;8.664;2023-05-20T13:35:15;8.83;;;7.03;;
13085;SDS011;6609;49.882;8.664;2023-05-20T13:37:43;8.00;;;6.43;;
13085;SDS011;6609;49.882;8.664;2023-05-20T13:40:10;9.63;;;6.83;;
13085;SDS011;6609;49.882;8.664;2023-05-20T13:42:37;8.80;;;6.20;;
13085;SDS011;6609;49.882;8.664;2023-05-20T13:45:05;9.27;;;6.30;;
13085;SDS011;6609;49.882;8.664;2023-05-20T13:47:32;7.87;;;6.67;;
13085;SDS011;6609;49.882;8.664;2023-05-20T13:49:59;8.23;;;6.33;;
13085;SDS011;6609;49.882;8.664;2023-05-20T13:52:26;8.67;;;6.93;;
13085;SDS011;6609;49.882;8.664;2023-05-20T13:54:54;9.30;;;6.50;;
13085;SDS011;6609;49.882;8.664;2023-05-20T13:57:21;9.13;;;7.47;;
13085;SDS011;6609;49.882;8.664;2023-05-20T13:59:48;8.27;;;6.67;;
13085;SDS011;6609;49.882;8.664;2023-05-20T14:02:15;10.50;;;7.10;;
13085;SDS011;6609;49.882;8.664;2023-05-20T14:04:42;8.07;;;6.33;;
13085;SDS011;6609;49.882;8.664;2023-05-20T14:07:10;10.00;;;6.57;;
13085;SDS011;6609;49.882;8.664;2023-05-20T14:09:37;10.50;;;6.80;;
13085;SDS011;6609;49.882;8.664;2023-05-20T14:12:06;11.13;;;6.67;;
13085;SDS011;6609;49.882;8.664;2023-05-20T14:14:33;8.13;;;6.50;;
13085;SDS011;6609;49.882;8.664;2023-05-20T14:17:00;8.03;;;6.67;;
13085;SDS011;6609;49.882;8.664;2023-05-20T14:19:27;10.33;;;7.43;;
13085;SDS011;6609;49.882;8.664;2023-05-20T14:21:54;9.93;;;6.77;;
13085;SDS011;6609;49.882;8.664;2023-05-20T14:24:22;12.23;;;8.13;;
13085;SDS011;6609;49.882;8.664;2023-05-20T14:26:49;9.50;;;7.30;;
13085;SDS011;6609;49.882;8.664;2023-05-20T14:29:17;8.43;;;6.13;;
13085;SDS011;6609;49.882;8.664;2023-05-20T14:31:44;8.93;;;7.27;;
13085;SDS011;6609;49.882;8.664;2023-05-20T14:34:11;8.30;;;6.63;;
13085;SDS011;6609;49.882;8.664;2023-05-20T14:36:37;9.13;;;6.83;;
13085;SDS011;6609;49.882;8.664;2023-05-20T14:39:04;8.60;;;7.23;;
13085;SDS011;6609;49.882;8.664;2023-05-20T14:41:31;11.60;;;7.27;;
13085;SDS011;6609;49.882;8.664;2023-05-20T14:43:58;11.10;;;8.13;;
13085;SDS011;6609;49.882;8.664;2023-05-20T14:46:27;10.80;;;7.10;;
13085;SDS011;6609;49.882;8.664;2023-05-20T14:48:54;11.13;;;7.37;;
13085;SDS011;6609;49.882;8.664;2023-05-20T14:51:21;9.07;;;7.83;;
13085;SDS011;6609;49.882;8.664;2023-05-20T14:53:47;9.30;;;6.93;;
13085;SDS011;6609;49.882;8.664;2023-05-20T14:56:14;10.50;;;7.50;;
13085;SDS011;6609;49.882;8.664;2023-05-20T14:58:41;9.93;;;7.50;;
13085;SDS011;6609;49.882;8.664;2023-05-20T15:01:08;9.33;;;7.30;;
13085;SDS011;6609;49.882;8.664;2023-05-20T15:03:36;9.53;;;8.27;;